EDHL/LBC METAR and TAF weather

Enter ICAO airport designator
Station Type Date Time Source
EDHL METAR 2022/01/26 20:20 UTC NOAA

EDHL 262020Z AUTO 24010G21KT 190V290 5000 // BKN006/// 05/04 Q1022


Station Type Date Time Source
EDHL Decoded METAR 2022/01/26 20:20 UTC NOAA

Luebeck-Blankensee, Germany (EDHL) 53-49N 010-42E 15M
Jan 26, 2022 - 03:20 PM EST / 2022.01.26 2020 UTC
Wind: from the WSW (240 degrees) at 12 MPH (10 KT) gusting to 24 MPH (21 KT) (direction variable):0
Visibility: 3 mile(s):0
Sky conditions: mostly cloudy
Temperature: 41 F (5 C)
Dew Point: 39 F (4 C)
Relative Humidity: 93%
Pressure (altimeter): 30.18 in. Hg (1022 hPa)
ob: EDHL 262020Z AUTO 24010G21KT 190V290 5000 // BKN006/// 05/04 Q1022
cycle: 20

Station Type Date Time Source
EDHL TAF 2010/02/22 14:20 UTC NOAA

METAR EDHL 221420Z 15004KT 110V180 9999 FEW039 SCT120 05/02 Q0990
RMK X

Example: see airport list